sensor_id;sensor_type;location;lat;lon;timestamp;pressure;altitude;pressure_sealevel;temperature
45701;BMP280;36277;32.852;-116.998;2024-01-30T00:00:04;100196.59;;;25.77
45701;BMP280;36277;32.852;-116.998;2024-01-30T00:02:32;100204.13;;;25.89
45701;BMP280;36277;32.852;-116.998;2024-01-30T00:04:58;100199.31;;;26.04
45701;BMP280;36277;32.852;-116.998;2024-01-30T00:07:24;100205.72;;;26.05
45701;BMP280;36277;32.852;-116.998;2024-01-30T00:09:50;100207.59;;;25.70
45701;BMP280;36277;32.852;-116.998;2024-01-30T00:12:17;100203.47;;;25.32
45701;BMP280;36277;32.852;-116.998;2024-01-30T00:14:43;100215.00;;;24.94
45701;BMP280;36277;32.852;-116.998;2024-01-30T00:17:09;100209.84;;;25.12
45701;BMP280;36277;32.852;-116.998;2024-01-30T00:19:36;100214.34;;;25.34
45701;BMP280;36277;32.852;-116.998;2024-01-30T00:22:02;100213.91;;;25.58
45701;BMP280;36277;32.852;-116.998;2024-01-30T00:24:28;100209.34;;;25.78
45701;BMP280;36277;32.852;-116.998;2024-01-30T00:26:54;100216.50;;;25.93
45701;BMP280;36277;32.852;-116.998;2024-01-30T00:29:21;100226.56;;;26.07
45701;BMP280;36277;32.852;-116.998;2024-01-30T00:31:48;100221.97;;;26.21
45701;BMP280;36277;32.852;-116.998;2024-01-30T00:34:15;100225.41;;;26.29
45701;BMP280;36277;32.852;-116.998;2024-01-30T00:36:41;100226.13;;;26.38
45701;BMP280;36277;32.852;-116.998;2024-01-30T00:39:07;100223.63;;;26.49
45701;BMP280;36277;32.852;-116.998;2024-01-30T00:41:35;100232.09;;;26.41
45701;BMP280;36277;32.852;-116.998;2024-01-30T00:44:01;100229.31;;;26.01
45701;BMP280;36277;32.852;-116.998;2024-01-30T00:46:28;100227.50;;;25.59
45701;BMP280;36277;32.852;-116.998;2024-01-30T00:48:54;100235.72;;;25.46
45701;BMP280;36277;32.852;-116.998;2024-01-30T00:51:20;100241.75;;;25.63
45701;BMP280;36277;32.852;-116.998;2024-01-30T00:53:47;100238.13;;;25.83
45701;BMP280;36277;32.852;-116.998;2024-01-30T00:56:13;100244.41;;;25.98
45701;BMP280;36277;32.852;-116.998;2024-01-30T00:58:39;100242.59;;;26.12
45701;BMP280;36277;32.852;-116.998;2024-01-30T01:01:06;100247.53;;;26.23
45701;BMP280;36277;32.852;-116.998;2024-01-30T01:03:33;100258.63;;;26.29
45701;BMP280;36277;32.852;-116.998;2024-01-30T01:05:59;100260.38;;;26.37
45701;BMP280;36277;32.852;-116.998;2024-01-30T01:08:25;100269.78;;;26.42
45701;BMP280;36277;32.852;-116.998;2024-01-30T01:10:52;100267.28;;;26.47
45701;BMP280;36277;32.852;-116.998;2024-01-30T01:13:19;100272.72;;;26.40
45701;BMP280;36277;32.852;-116.998;2024-01-30T01:15:45;100276.38;;;26.07
45701;BMP280;36277;32.852;-116.998;2024-01-30T01:18:12;100274.47;;;25.80
45701;BMP280;36277;32.852;-116.998;2024-01-30T01:20:38;100279.66;;;25.69
45701;BMP280;36277;32.852;-116.998;2024-01-30T01:23:04;100277.06;;;25.82
45701;BMP280;36277;32.852;-116.998;2024-01-30T01:25:31;100284.59;;;25.94
45701;BMP280;36277;32.852;-116.998;2024-01-30T01:27:57;100285.94;;;26.05
45701;BMP280;36277;32.852;-116.998;2024-01-30T01:30:23;100294.53;;;26.16
45701;BMP280;36277;32.852;-116.998;2024-01-30T01:32:51;100295.22;;;26.25
45701;BMP280;36277;32.852;-116.998;2024-01-30T01:35:24;100301.25;;;26.35
45701;BMP280;36277;32.852;-116.998;2024-01-30T01:37:54;100302.97;;;26.42
45701;BMP280;36277;32.852;-116.998;2024-01-30T01:40:26;100304.31;;;26.46
45701;BMP280;36277;32.852;-116.998;2024-01-30T01:42:54;100307.28;;;26.51
45701;BMP280;36277;32.852;-116.998;2024-01-30T01:45:21;100307.34;;;26.57
45701;BMP280;36277;32.852;-116.998;2024-01-30T01:47:51;100315.91;;;26.62
45701;BMP280;36277;32.852;-116.998;2024-01-30T01:50:18;100316.22;;;26.46
45701;BMP280;36277;32.852;-116.998;2024-01-30T01:52:50;100316.84;;;26.15
45701;BMP280;36277;32.852;-116.998;2024-01-30T01:55:18;100318.44;;;25.96
45701;BMP280;36277;32.852;-116.998;2024-01-30T01:57:47;100326.97;;;26.01
45701;BMP280;36277;32.852;-116.998;2024-01-30T02:00:14;100325.13;;;26.15
45701;BMP280;36277;32.852;-116.998;2024-01-30T02:02:41;100332.25;;;26.24
45701;BMP280;36277;32.852;-116.998;2024-01-30T02:05:09;100337.22;;;26.35
45701;BMP280;36277;32.852;-116.998;2024-01-30T02:07:36;100338.78;;;26.43
45701;BMP280;36277;32.852;-116.998;2024-01-30T02:10:02;100347.16;;;26.50
45701;BMP280;36277;32.852;-116.998;2024-01-30T02:12:29;100344.59;;;26.55
45701;BMP280;36277;32.852;-116.998;2024-01-30T02:14:56;100344.84;;;26.60
45701;BMP280;36277;32.852;-116.998;2024-01-30T02:17:23;100357.22;;;26.64
45701;BMP280;36277;32.852;-116.998;2024-01-30T02:19:49;100352.13;;;26.67
45701;BMP280;36277;32.852;-116.998;2024-01-30T02:22:16;100362.38;;;26.73
45701;BMP280;36277;32.852;-116.998;2024-01-30T02:24:42;100361.31;;;26.74
45701;BMP280;36277;32.852;-116.998;2024-01-30T02:27:08;100360.25;;;26.75
45701;BMP280;36277;32.852;-116.998;2024-01-30T02:29:35;100359.28;;;26.49
45701;BMP280;36277;32.852;-116.998;2024-01-30T02:32:01;100359.28;;;25.94
45701;BMP280;36277;32.852;-116.998;2024-01-30T02:34:27;100355.03;;;25.77
45701;BMP280;36277;32.852;-116.998;2024-01-30T02:36:53;100364.94;;;25.86
45701;BMP280;36277;32.852;-116.998;2024-01-30T02:39:20;100363.75;;;25.95
45701;BMP280;36277;32.852;-116.998;2024-01-30T02:41:46;100369.75;;;26.05
45701;BMP280;36277;32.852;-116.998;2024-01-30T02:44:12;100374.94;;;26.15
45701;BMP280;36277;32.852;-116.998;2024-01-30T02:46:38;100364.13;;;26.20
45701;BMP280;36277;32.852;-116.998;2024-01-30T02:49:05;100368.66;;;26.27
45701;BMP280;36277;32.852;-116.998;2024-01-30T02:51:31;100367.19;;;26.31
45701;BMP280;36277;32.852;-116.998;2024-01-30T02:53:57;100365.09;;;26.33
45701;BMP280;36277;32.852;-116.998;2024-01-30T02:56:23;100365.72;;;26.35
45701;BMP280;36277;32.852;-116.998;2024-01-30T02:58:50;100374.94;;;26.42
45701;BMP280;36277;32.852;-116.998;2024-01-30T03:01:16;100371.81;;;26.45
45701;BMP280;36277;32.852;-116.998;2024-01-30T03:03:42;100373.13;;;26.49
45701;BMP280;36277;32.852;-116.998;2024-01-30T03:06:09;100375.88;;;26.49
45701;BMP280;36277;32.852;-116.998;2024-01-30T03:08:35;100376.72;;;26.49
45701;BMP280;36277;32.852;-116.998;2024-01-30T03:11:01;100375.00;;;26.48
45701;BMP280;36277;32.852;-116.998;2024-01-30T03:13:28;100371.19;;;26.49
45701;BMP280;36277;32.852;-116.998;2024-01-30T03:15:54;100375.44;;;26.52
45701;BMP280;36277;32.852;-116.998;2024-01-30T03:18:20;100369.91;;;26.52
45701;BMP280;36277;32.852;-116.998;2024-01-30T03:20:47;100370.97;;;26.51
45701;BMP280;36277;32.852;-116.998;2024-01-30T03:23:13;100370.34;;;26.49
45701;BMP280;36277;32.852;-116.998;2024-01-30T03:25:39;100370.75;;;26.46
45701;BMP280;36277;32.852;-116.998;2024-01-30T03:28:06;100374.16;;;26.48
45701;BMP280;36277;32.852;-116.998;2024-01-30T03:30:34;100377.78;;;26.48
45701;BMP280;36277;32.852;-116.998;2024-01-30T03:33:00;100372.88;;;26.44
45701;BMP280;36277;32.852;-116.998;2024-01-30T03:35:27;100378.00;;;26.47
45701;BMP280;36277;32.852;-116.998;2024-01-30T03:37:53;100378.44;;;26.50
45701;BMP280;36277;32.852;-116.998;2024-01-30T03:40:22;100373.75;;;26.51
45701;BMP280;36277;32.852;-116.998;2024-01-30T03:42:49;100369.28;;;26.50
45701;BMP280;36277;32.852;-116.998;2024-01-30T03:45:15;100369.91;;;26.52
45701;BMP280;36277;32.852;-116.998;2024-01-30T03:47:43;100366.97;;;26.53
45701;BMP280;36277;32.852;-116.998;2024-01-30T03:50:10;100369.31;;;26.56
45701;BMP280;36277;32.852;-116.998;2024-01-30T03:52:36;100371.44;;;26.54
45701;BMP280;36277;32.852;-116.998;2024-01-30T03:55:02;100372.75;;;26.58
45701;BMP280;36277;32.852;-116.998;2024-01-30T03:57:29;100373.81;;;26.57
45701;BMP280;36277;32.852;-116.998;2024-01-30T03:59:55;100375.69;;;26.57
45701;BMP280;36277;32.852;-116.998;2024-01-30T04:02:21;100374.25;;;26.61
45701;BMP280;36277;32.852;-116.998;2024-01-30T04:04:48;100381.47;;;26.62
45701;BMP280;36277;32.852;-116.998;2024-01-30T04:07:14;100384.91;;;26.64
45701;BMP280;36277;32.852;-116.998;2024-01-30T04:09:40;100381.06;;;26.65
45701;BMP280;36277;32.852;-116.998;2024-01-30T04:12:07;100378.50;;;26.63
45701;BMP280;36277;32.852;-116.998;2024-01-30T04:14:33;100391.72;;;26.61
45701;BMP280;36277;32.852;-116.998;2024-01-30T04:16:59;100381.47;;;26.62
45701;BMP280;36277;32.852;-116.998;2024-01-30T04:19:25;100394.50;;;26.61
45701;BMP280;36277;32.852;-116.998;2024-01-30T04:21:52;100383.59;;;26.60
45701;BMP280;36277;32.852;-116.998;2024-01-30T04:24:18;100390.00;;;26.60
45701;BMP280;36277;32.852;-116.998;2024-01-30T04:26:44;100396.59;;;26.59
45701;BMP280;36277;32.852;-116.998;2024-01-30T04:29:10;100384.88;;;26.57
45701;BMP280;36277;32.852;-116.998;2024-01-30T04:31:37;100393.63;;;26.61
45701;BMP280;36277;32.852;-116.998;2024-01-30T04:34:03;100395.31;;;26.62
45701;BMP280;36277;32.852;-116.998;2024-01-30T04:36:29;100395.75;;;26.65
45701;BMP280;36277;32.852;-116.998;2024-01-30T04:38:55;100393.00;;;26.65
45701;BMP280;36277;32.852;-116.998;2024-01-30T04:41:22;100389.38;;;26.65
45701;BMP280;36277;32.852;-116.998;2024-01-30T04:43:48;100384.50;;;26.67
45701;BMP280;36277;32.852;-116.998;2024-01-30T04:46:14;100394.28;;;26.63
45701;BMP280;36277;32.852;-116.998;2024-01-30T04:48:40;100395.97;;;26.64
45701;BMP280;36277;32.852;-116.998;2024-01-30T04:51:07;100397.03;;;26.63
45701;BMP280;36277;32.852;-116.998;2024-01-30T04:53:33;100394.28;;;26.63
45701;BMP280;36277;32.852;-116.998;2024-01-30T04:55:59;100398.53;;;26.65
45701;BMP280;36277;32.852;-116.998;2024-01-30T04:58:26;100404.50;;;26.62
45701;BMP280;36277;32.852;-116.998;2024-01-30T05:00:52;100406.00;;;26.65
45701;BMP280;36277;32.852;-116.998;2024-01-30T05:03:19;100402.81;;;26.68
45701;BMP280;36277;32.852;-116.998;2024-01-30T05:05:46;100409.81;;;26.64
45701;BMP280;36277;32.852;-116.998;2024-01-30T05:08:12;100409.16;;;26.62
45701;BMP280;36277;32.852;-116.998;2024-01-30T05:10:38;100407.38;;;26.48
45701;BMP280;36277;32.852;-116.998;2024-01-30T05:13:05;100418.50;;;26.54
45701;BMP280;36277;32.852;-116.998;2024-01-30T05:15:31;100422.97;;;26.55
45701;BMP280;36277;32.852;-116.998;2024-01-30T05:17:57;100410.38;;;26.53
45701;BMP280;36277;32.852;-116.998;2024-01-30T05:20:23;100417.41;;;26.49
45701;BMP280;36277;32.852;-116.998;2024-01-30T05:22:53;100420.97;;;26.43
45701;BMP280;36277;32.852;-116.998;2024-01-30T05:25:20;100434.59;;;26.44
45701;BMP280;36277;32.852;-116.998;2024-01-30T05:27:46;100425.59;;;26.42
45701;BMP280;36277;32.852;-116.998;2024-01-30T05:30:13;100436.91;;;26.41
45701;BMP280;36277;32.852;-116.998;2024-01-30T05:32:39;100428.34;;;26.36
45701;BMP280;36277;32.852;-116.998;2024-01-30T05:35:06;100430.66;;;26.33
45701;BMP280;36277;32.852;-116.998;2024-01-30T05:37:33;100432.28;;;26.27
45701;BMP280;36277;32.852;-116.998;2024-01-30T05:40:00;100444.03;;;26.29
45701;BMP280;36277;32.852;-116.998;2024-01-30T05:42:26;100438.25;;;26.24
45701;BMP280;36277;32.852;-116.998;2024-01-30T05:44:53;100438.66;;;26.21
45701;BMP280;36277;32.852;-116.998;2024-01-30T05:47:19;100437.13;;;26.19
45701;BMP280;36277;32.852;-116.998;2024-01-30T05:49:45;100443.94;;;26.16
45701;BMP280;36277;32.852;-116.998;2024-01-30T05:52:12;100446.22;;;26.13
45701;BMP280;36277;32.852;-116.998;2024-01-30T05:54:38;100451.31;;;26.09
45701;BMP280;36277;32.852;-116.998;2024-01-30T05:57:05;100453.41;;;26.07
45701;BMP280;36277;32.852;-116.998;2024-01-30T05:59:32;100460.38;;;26.03
45701;BMP280;36277;32.852;-116.998;2024-01-30T06:01:58;100465.47;;;26.00
45701;BMP280;36277;32.852;-116.998;2024-01-30T06:04:24;100467.41;;;25.99
45701;BMP280;36277;32.852;-116.998;2024-01-30T06:06:51;100467.78;;;25.96
45701;BMP280;36277;32.852;-116.998;2024-01-30T06:09:17;100467.13;;;25.94
45701;BMP280;36277;32.852;-116.998;2024-01-30T06:11:43;100465.41;;;25.93
45701;BMP280;36277;32.852;-116.998;2024-01-30T06:14:09;100462.16;;;25.90
45701;BMP280;36277;32.852;-116.998;2024-01-30T06:16:36;100471.72;;;25.87
45701;BMP280;36277;32.852;-116.998;2024-01-30T06:19:02;100478.31;;;25.86
45701;BMP280;36277;32.852;-116.998;2024-01-30T06:21:28;100477.66;;;25.84
45701;BMP280;36277;32.852;-116.998;2024-01-30T06:23:54;100471.47;;;25.82
45701;BMP280;36277;32.852;-116.998;2024-01-30T06:26:21;100475.50;;;25.80
45701;BMP280;36277;32.852;-116.998;2024-01-30T06:28:47;100467.53;;;25.77
45701;BMP280;36277;32.852;-116.998;2024-01-30T06:31:13;100467.94;;;25.74
45701;BMP280;36277;32.852;-116.998;2024-01-30T06:33:42;100476.03;;;25.75
45701;BMP280;36277;32.852;-116.998;2024-01-30T06:36:08;100470.81;;;25.66
45701;BMP280;36277;32.852;-116.998;2024-01-30T06:38:35;100471.88;;;25.65
45701;BMP280;36277;32.852;-116.998;2024-01-30T06:41:01;100474.84;;;25.63
45701;BMP280;36277;32.852;-116.998;2024-01-30T06:43:27;100484.41;;;25.61
45701;BMP280;36277;32.852;-116.998;2024-01-30T06:45:53;100483.53;;;25.60
45701;BMP280;36277;32.852;-116.998;2024-01-30T06:48:20;100476.66;;;25.56
45701;BMP280;36277;32.852;-116.998;2024-01-30T06:50:46;100480.69;;;25.54
45701;BMP280;36277;32.852;-116.998;2024-01-30T06:53:13;100476.38;;;25.51
45701;BMP280;36277;32.852;-116.998;2024-01-30T06:55:39;100482.97;;;25.50
45701;BMP280;36277;32.852;-116.998;2024-01-30T06:58:06;100476.97;;;25.47
45701;BMP280;36277;32.852;-116.998;2024-01-30T07:00:32;100482.50;;;25.47
45701;BMP280;36277;32.852;-116.998;2024-01-30T07:02:58;100474.59;;;25.44
45701;BMP280;36277;32.852;-116.998;2024-01-30T07:05:24;100473.75;;;25.43
45701;BMP280;36277;32.852;-116.998;2024-01-30T07:07:51;100470.50;;;25.40
45701;BMP280;36277;32.852;-116.998;2024-01-30T07:10:17;100472.81;;;25.36
45701;BMP280;36277;32.852;-116.998;2024-01-30T07:12:43;100470.25;;;25.35
45701;BMP280;36277;32.852;-116.998;2024-01-30T07:15:10;100475.28;;;25.31
45701;BMP280;36277;32.852;-116.998;2024-01-30T07:17:36;100476.34;;;25.30
45701;BMP280;36277;32.852;-116.998;2024-01-30T07:20:03;100476.72;;;25.27
45701;BMP280;36277;32.852;-116.998;2024-01-30T07:22:30;100475.88;;;25.27
45701;BMP280;36277;32.852;-116.998;2024-01-30T07:24:57;100475.41;;;25.24
45701;BMP280;36277;32.852;-116.998;2024-01-30T07:27:23;100475.41;;;25.24
45701;BMP280;36277;32.852;-116.998;2024-01-30T07:29:49;100481.34;;;25.21
45701;BMP280;36277;32.852;-116.998;2024-01-30T07:32:15;100470.66;;;25.18
45701;BMP280;36277;32.852;-116.998;2024-01-30T07:34:42;100470.84;;;25.16
45701;BMP280;36277;32.852;-116.998;2024-01-30T07:37:08;100471.41;;;25.12
45701;BMP280;36277;32.852;-116.998;2024-01-30T07:39:35;100470.72;;;25.10
45701;BMP280;36277;32.852;-116.998;2024-01-30T07:42:01;100461.09;;;25.06
45701;BMP280;36277;32.852;-116.998;2024-01-30T07:44:28;100471.09;;;25.07
45701;BMP280;36277;32.852;-116.998;2024-01-30T07:46:57;100470.66;;;25.03
45701;BMP280;36277;32.852;-116.998;2024-01-30T07:49:23;100467.00;;;25.03
45701;BMP280;36277;32.852;-116.998;2024-01-30T07:51:50;100470.81;;;25.02
45701;BMP280;36277;32.852;-116.998;2024-01-30T07:54:16;100464.84;;;24.98
45701;BMP280;36277;32.852;-116.998;2024-01-30T07:56:43;100459.53;;;24.97
45701;BMP280;36277;32.852;-116.998;2024-01-30T07:59:12;100452.91;;;24.98
45701;BMP280;36277;32.852;-116.998;2024-01-30T08:01:38;100455.41;;;24.93
45701;BMP280;36277;32.852;-116.998;2024-01-30T08:04:05;100451.13;;;24.90
45701;BMP280;36277;32.852;-116.998;2024-01-30T08:06:31;100446.66;;;24.89
45701;BMP280;36277;32.852;-116.998;2024-01-30T08:08:57;100450.44;;;24.88
45701;BMP280;36277;32.852;-116.998;2024-01-30T08:11:25;100449.78;;;24.86
45701;BMP280;36277;32.852;-116.998;2024-01-30T08:13:53;100448.28;;;24.84
45701;BMP280;36277;32.852;-116.998;2024-01-30T08:16:19;100449.31;;;24.83
45701;BMP280;36277;32.852;-116.998;2024-01-30T08:18:45;100437.97;;;24.78
45701;BMP280;36277;32.852;-116.998;2024-01-30T08:21:11;100440.75;;;24.78
45701;BMP280;36277;32.852;-116.998;2024-01-30T08:23:42;100433.34;;;24.78
45701;BMP280;36277;32.852;-116.998;2024-01-30T08:26:08;100442.16;;;24.74
45701;BMP280;36277;32.852;-116.998;2024-01-30T08:28:34;100436.00;;;24.72
45701;BMP280;36277;32.852;-116.998;2024-01-30T08:31:01;100434.47;;;24.69
45701;BMP280;36277;32.852;-116.998;2024-01-30T08:33:27;100446.56;;;24.68
45701;BMP280;36277;32.852;-116.998;2024-01-30T08:35:54;100437.44;;;24.68
45701;BMP280;36277;32.852;-116.998;2024-01-30T08:38:20;100437.81;;;24.65
45701;BMP280;36277;32.852;-116.998;2024-01-30T08:40:46;100448.19;;;24.63
45701;BMP280;36277;32.852;-116.998;2024-01-30T08:43:12;100443.72;;;24.62
45701;BMP280;36277;32.852;-116.998;2024-01-30T08:45:39;100442.16;;;24.59
45701;BMP280;36277;32.852;-116.998;2024-01-30T08:48:05;100439.41;;;24.59
45701;BMP280;36277;32.852;-116.998;2024-01-30T08:50:32;100446.16;;;24.57
45701;BMP280;36277;32.852;-116.998;2024-01-30T08:52:58;100441.03;;;24.54
45701;BMP280;36277;32.852;-116.998;2024-01-30T08:55:24;100442.06;;;24.53
45701;BMP280;36277;32.852;-116.998;2024-01-30T08:57:51;100442.28;;;24.51
45701;BMP280;36277;32.852;-116.998;2024-01-30T09:00:18;100447.97;;;24.50
45701;BMP280;36277;32.852;-116.998;2024-01-30T09:02:44;100435.22;;;24.49
45701;BMP280;36277;32.852;-116.998;2024-01-30T09:05:10;100437.31;;;24.47
45701;BMP280;36277;32.852;-116.998;2024-01-30T09:07:36;100429.19;;;24.45
45701;BMP280;36277;32.852;-116.998;2024-01-30T09:10:03;100423.00;;;24.43
45701;BMP280;36277;32.852;-116.998;2024-01-30T09:12:29;100428.72;;;24.42
45701;BMP280;36277;32.852;-116.998;2024-01-30T09:14:56;100421.66;;;24.39
45701;BMP280;36277;32.852;-116.998;2024-01-30T09:17:22;100423.59;;;24.39
45701;BMP280;36277;32.852;-116.998;2024-01-30T09:19:48;100423.97;;;24.36
45701;BMP280;36277;32.852;-116.998;2024-01-30T09:22:15;100425.84;;;24.35
45701;BMP280;36277;32.852;-116.998;2024-01-30T09:24:41;100420.53;;;24.34
45701;BMP280;36277;32.852;-116.998;2024-01-30T09:27:07;100423.50;;;24.32
45701;BMP280;36277;32.852;-116.998;2024-01-30T09:29:33;100414.53;;;24.30
45701;BMP280;36277;32.852;-116.998;2024-01-30T09:32:02;100413.88;;;24.28
45701;BMP280;36277;32.852;-116.998;2024-01-30T09:34:28;100411.47;;;24.25
45701;BMP280;36277;32.852;-116.998;2024-01-30T09:36:54;100401.28;;;24.26
45701;BMP280;36277;32.852;-116.998;2024-01-30T09:39:23;100402.53;;;24.23
45701;BMP280;36277;32.852;-116.998;2024-01-30T09:44:29;100398.63;;;24.18
45701;BMP280;36277;32.852;-116.998;2024-01-30T09:46:56;100393.50;;;24.15
45701;BMP280;36277;32.852;-116.998;2024-01-30T09:49:33;100395.22;;;24.16
45701;BMP280;36277;32.852;-116.998;2024-01-30T09:52:00;100382.84;;;24.12
45701;BMP280;36277;32.852;-116.998;2024-01-30T09:54:31;100383.69;;;24.13
45701;BMP280;36277;32.852;-116.998;2024-01-30T09:56:58;100377.69;;;24.09
45701;BMP280;36277;32.852;-116.998;2024-01-30T09:59:24;100368.75;;;24.07
45701;BMP280;36277;32.852;-116.998;2024-01-30T10:01:51;100371.72;;;24.06
45701;BMP280;36277;32.852;-116.998;2024-01-30T10:04:18;100374.63;;;24.04
45701;BMP280;36277;32.852;-116.998;2024-01-30T10:06:44;100376.56;;;24.04
45701;BMP280;36277;32.852;-116.998;2024-01-30T10:09:10;100374.16;;;24.01
45701;BMP280;36277;32.852;-116.998;2024-01-30T10:11:37;100380.72;;;24.00
45701;BMP280;36277;32.852;-116.998;2024-01-30T10:14:03;100381.75;;;23.99
45701;BMP280;36277;32.852;-116.998;2024-01-30T10:16:29;100375.38;;;23.98
45701;BMP280;36277;32.852;-116.998;2024-01-30T10:18:56;100376.63;;;23.96
45701;BMP280;36277;32.852;-116.998;2024-01-30T10:21:22;100375.94;;;23.94
45701;BMP280;36277;32.852;-116.998;2024-01-30T10:23:49;100379.56;;;23.94
45701;BMP280;36277;32.852;-116.998;2024-01-30T10:26:18;100374.06;;;23.94
45701;BMP280;36277;32.852;-116.998;2024-01-30T10:28:45;100368.03;;;23.91
45701;BMP280;36277;32.852;-116.998;2024-01-30T10:31:15;100364.63;;;23.89
45701;BMP280;36277;32.852;-116.998;2024-01-30T10:33:43;100366.53;;;23.88
45701;BMP280;36277;32.852;-116.998;2024-01-30T10:36:13;100360.81;;;23.90
45701;BMP280;36277;32.852;-116.998;2024-01-30T10:38:43;100358.63;;;23.85
45701;BMP280;36277;32.852;-116.998;2024-01-30T10:41:13;100359.69;;;23.84
45701;BMP280;36277;32.852;-116.998;2024-01-30T10:43:41;100354.53;;;23.81
45701;BMP280;36277;32.852;-116.998;2024-01-30T10:46:16;100357.28;;;23.81
45701;BMP280;36277;32.852;-116.998;2024-01-30T10:48:50;100343.72;;;23.80
45701;BMP280;36277;32.852;-116.998;2024-01-30T10:51:16;100349.72;;;23.75
45701;BMP280;36277;32.852;-116.998;2024-01-30T10:53:46;100343.16;;;23.76
45701;BMP280;36277;32.852;-116.998;2024-01-30T10:56:16;100354.19;;;23.76
45701;BMP280;36277;32.852;-116.998;2024-01-30T10:58:42;100342.69;;;23.73
45701;BMP280;36277;32.852;-116.998;2024-01-30T11:01:09;100344.59;;;23.72
45701;BMP280;36277;32.852;-116.998;2024-01-30T11:03:36;100340.97;;;23.72
45701;BMP280;36277;32.852;-116.998;2024-01-30T11:06:03;100341.34;;;23.69
45701;BMP280;36277;32.852;-116.998;2024-01-30T11:08:32;100333.97;;;23.69
45701;BMP280;36277;32.852;-116.998;2024-01-30T11:10:58;100334.50;;;23.65
45701;BMP280;36277;32.852;-116.998;2024-01-30T11:13:29;100332.41;;;23.67
45701;BMP280;36277;32.852;-116.998;2024-01-30T11:16:00;100322.63;;;23.64
45701;BMP280;36277;32.852;-116.998;2024-01-30T11:18:32;100323.84;;;23.62
45701;BMP280;36277;32.852;-116.998;2024-01-30T11:20:59;100313.19;;;23.59
45701;BMP280;36277;32.852;-116.998;2024-01-30T11:23:32;100314.06;;;23.59
45701;BMP280;36277;32.852;-116.998;2024-01-30T11:25:59;100317.38;;;23.55
45701;BMP280;36277;32.852;-116.998;2024-01-30T11:28:33;100316.34;;;23.56
45701;BMP280;36277;32.852;-116.998;2024-01-30T11:31:06;100314.78;;;23.53
45701;BMP280;36277;32.852;-116.998;2024-01-30T11:33:33;100312.63;;;23.49
45701;BMP280;36277;32.852;-116.998;2024-01-30T11:36:01;100309.84;;;23.49
45701;BMP280;36277;32.852;-116.998;2024-01-30T11:38:32;100313.81;;;23.46
45701;BMP280;36277;32.852;-116.998;2024-01-30T11:40:59;100309.53;;;23.44
45701;BMP280;36277;32.852;-116.998;2024-01-30T11:43:26;100318.69;;;23.44
45701;BMP280;36277;32.852;-116.998;2024-01-30T11:45:52;100312.50;;;23.42
45701;BMP280;36277;32.852;-116.998;2024-01-30T11:48:19;100306.13;;;23.42
45701;BMP280;36277;32.852;-116.998;2024-01-30T11:50:52;100305.28;;;23.41
45701;BMP280;36277;32.852;-116.998;2024-01-30T11:53:19;100303.44;;;23.34
45701;BMP280;36277;32.852;-116.998;2024-01-30T11:55:54;100308.19;;;23.40
45701;BMP280;36277;32.852;-116.998;2024-01-30T11:58:20;100295.72;;;23.29
45701;BMP280;36277;32.852;-116.998;2024-01-30T12:00:56;100297.38;;;23.38
45701;BMP280;36277;32.852;-116.998;2024-01-30T12:03:22;100293.44;;;23.33
45701;BMP280;36277;32.852;-116.998;2024-01-30T12:05:57;100289.13;;;23.38
45701;BMP280;36277;32.852;-116.998;2024-01-30T12:08:24;100289.84;;;23.32
45701;BMP280;36277;32.852;-116.998;2024-01-30T12:10:57;100295.66;;;23.37
45701;BMP280;36277;32.852;-116.998;2024-01-30T12:13:25;100290.69;;;23.33
45701;BMP280;36277;32.852;-116.998;2024-01-30T12:15:52;100284.53;;;23.31
45701;BMP280;36277;32.852;-116.998;2024-01-30T12:18:19;100287.28;;;23.31
45701;BMP280;36277;32.852;-116.998;2024-01-30T12:20:56;100288.34;;;23.30
45701;BMP280;36277;32.852;-116.998;2024-01-30T12:23:22;100286.78;;;23.27
45701;BMP280;36277;32.852;-116.998;2024-01-30T12:25:52;100295.06;;;23.27
45701;BMP280;36277;32.852;-116.998;2024-01-30T12:28:20;100293.16;;;23.28
45701;BMP280;36277;32.852;-116.998;2024-01-30T12:30:46;100290.78;;;23.25
45701;BMP280;36277;32.852;-116.998;2024-01-30T12:33:17;100285.06;;;23.26
45701;BMP280;36277;32.852;-116.998;2024-01-30T12:35:47;100289.22;;;23.22
45701;BMP280;36277;32.852;-116.998;2024-01-30T12:38:14;100292.00;;;23.22
45701;BMP280;36277;32.852;-116.998;2024-01-30T12:40:41;100295.09;;;23.19
45701;BMP280;36277;32.852;-116.998;2024-01-30T12:43:07;100284.97;;;23.20
45701;BMP280;36277;32.852;-116.998;2024-01-30T12:45:33;100284.28;;;23.18
45701;BMP280;36277;32.852;-116.998;2024-01-30T12:48:00;100280.69;;;23.17
45701;BMP280;36277;32.852;-116.998;2024-01-30T12:50:26;100280.84;;;23.16
45701;BMP280;36277;32.852;-116.998;2024-01-30T12:52:52;100278.31;;;23.14
45701;BMP280;36277;32.852;-116.998;2024-01-30T12:55:18;100280.19;;;23.14
45701;BMP280;36277;32.852;-116.998;2024-01-30T12:57:45;100277.78;;;23.11
45701;BMP280;36277;32.852;-116.998;2024-01-30T13:00:11;100274.38;;;23.09
45701;BMP280;36277;32.852;-116.998;2024-01-30T13:02:38;100291.09;;;23.07
45701;BMP280;36277;32.852;-116.998;2024-01-30T13:05:05;100285.56;;;23.07
45701;BMP280;36277;32.852;-116.998;2024-01-30T13:07:31;100287.63;;;23.05
45701;BMP280;36277;32.852;-116.998;2024-01-30T13:09:59;100287.97;;;23.02
45701;BMP280;36277;32.852;-116.998;2024-01-30T13:12:28;100290.06;;;23.00
45701;BMP280;36277;32.852;-116.998;2024-01-30T13:14:55;100292.34;;;22.97
45701;BMP280;36277;32.852;-116.998;2024-01-30T13:17:21;100296.97;;;22.97
45701;BMP280;36277;32.852;-116.998;2024-01-30T13:19:48;100293.38;;;22.96
45701;BMP280;36277;32.852;-116.998;2024-01-30T13:22:15;100296.28;;;22.95